sensor_id;sensor_type;location;lat;lon;timestamp;P1;durP1;ratioP1;P2;durP2;ratioP2
26946;SDS011;14501;52.282;10.560;2023-03-31T00:01:51;6.43;;;2.08;;
26946;SDS011;14501;52.282;10.560;2023-03-31T00:04:18;7.65;;;1.63;;
26946;SDS011;14501;52.282;10.560;2023-03-31T00:06:48;7.35;;;2.33;;
26946;SDS011;14501;52.282;10.560;2023-03-31T00:09:15;4.10;;;1.83;;
26946;SDS011;14501;52.282;10.560;2023-03-31T00:11:46;6.57;;;1.80;;
26946;SDS011;14501;52.282;10.560;2023-03-31T00:14:13;4.95;;;2.03;;
26946;SDS011;14501;52.282;10.560;2023-03-31T00:16:40;4.60;;;1.73;;
26946;SDS011;14501;52.282;10.560;2023-03-31T00:19:05;5.93;;;1.90;;
26946;SDS011;14501;52.282;10.560;2023-03-31T00:21:34;6.28;;;2.20;;
26946;SDS011;14501;52.282;10.560;2023-03-31T00:24:05;5.25;;;2.15;;
26946;SDS011;14501;52.282;10.560;2023-03-31T00:26:31;8.90;;;2.10;;
26946;SDS011;14501;52.282;10.560;2023-03-31T00:28:58;4.75;;;1.77;;
26946;SDS011;14501;52.282;10.560;2023-03-31T00:31:24;7.13;;;1.75;;
26946;SDS011;14501;52.282;10.560;2023-03-31T00:33:53;6.75;;;2.00;;
26946;SDS011;14501;52.282;10.560;2023-03-31T00:36:19;6.32;;;1.88;;
26946;SDS011;14501;52.282;10.560;2023-03-31T00:38:48;4.00;;;1.50;;
26946;SDS011;14501;52.282;10.560;2023-03-31T00:41:15;7.25;;;1.73;;
26946;SDS011;14501;52.282;10.560;2023-03-31T00:43:59;5.60;;;1.60;;
26946;SDS011;14501;52.282;10.560;2023-03-31T00:46:29;3.70;;;1.60;;
26946;SDS011;14501;52.282;10.560;2023-03-31T00:49:53;4.88;;;1.65;;
26946;SDS011;14501;52.282;10.560;2023-03-31T00:54:52;3.28;;;1.27;;
26946;SDS011;14501;52.282;10.560;2023-03-31T00:57:20;4.25;;;1.40;;
26946;SDS011;14501;52.282;10.560;2023-03-31T00:59:49;2.33;;;1.23;;
26946;SDS011;14501;52.282;10.560;2023-03-31T01:02:18;1.83;;;1.00;;
26946;SDS011;14501;52.282;10.560;2023-03-31T01:04:49;3.65;;;1.20;;
26946;SDS011;14501;52.282;10.560;2023-03-31T01:07:21;5.80;;;1.40;;
26946;SDS011;14501;52.282;10.560;2023-03-31T01:09:50;4.05;;;1.50;;
26946;SDS011;14501;52.282;10.560;2023-03-31T01:12:20;6.78;;;1.50;;
26946;SDS011;14501;52.282;10.560;2023-03-31T01:14:47;3.78;;;1.55;;
26946;SDS011;14501;52.282;10.560;2023-03-31T01:17:15;2.55;;;1.13;;
26946;SDS011;14501;52.282;10.560;2023-03-31T01:34:13;3.40;;;1.23;;
26946;SDS011;14501;52.282;10.560;2023-03-31T01:41:48;4.32;;;1.45;;
26946;SDS011;14501;52.282;10.560;2023-03-31T01:50:06;3.38;;;1.00;;
26946;SDS011;14501;52.282;10.560;2023-03-31T01:53:01;3.70;;;1.10;;
26946;SDS011;14501;52.282;10.560;2023-03-31T01:55:40;4.45;;;0.98;;
26946;SDS011;14501;52.282;10.560;2023-03-31T01:58:14;2.33;;;0.80;;
26946;SDS011;14501;52.282;10.560;2023-03-31T02:00:49;5.88;;;1.52;;
26946;SDS011;14501;52.282;10.560;2023-03-31T02:03:55;3.92;;;1.17;;
26946;SDS011;14501;52.282;10.560;2023-03-31T02:06:19;6.03;;;1.25;;
26946;SDS011;14501;52.282;10.560;2023-03-31T02:08:49;5.20;;;1.20;;
26946;SDS011;14501;52.282;10.560;2023-03-31T02:11:21;5.78;;;1.33;;
26946;SDS011;14501;52.282;10.560;2023-03-31T02:13:48;5.63;;;1.33;;
26946;SDS011;14501;52.282;10.560;2023-03-31T02:16:18;3.08;;;1.20;;
26946;SDS011;14501;52.282;10.560;2023-03-31T02:18:49;3.63;;;0.88;;
26946;SDS011;14501;52.282;10.560;2023-03-31T02:21:18;2.35;;;1.10;;
26946;SDS011;14501;52.282;10.560;2023-03-31T02:23:46;5.72;;;1.13;;
26946;SDS011;14501;52.282;10.560;2023-03-31T02:26:15;3.28;;;1.00;;
26946;SDS011;14501;52.282;10.560;2023-03-31T02:28:44;2.03;;;1.10;;
26946;SDS011;14501;52.282;10.560;2023-03-31T02:34:13;3.20;;;1.00;;
26946;SDS011;14501;52.282;10.560;2023-03-31T02:36:39;4.50;;;1.05;;
26946;SDS011;14501;52.282;10.560;2023-03-31T02:39:17;4.60;;;1.05;;
26946;SDS011;14501;52.282;10.560;2023-03-31T02:41:47;4.15;;;0.93;;
26946;SDS011;14501;52.282;10.560;2023-03-31T02:44:13;4.15;;;1.17;;
26946;SDS011;14501;52.282;10.560;2023-03-31T02:46:41;5.63;;;1.00;;
26946;SDS011;14501;52.282;10.560;2023-03-31T02:49:07;2.22;;;0.93;;
26946;SDS011;14501;52.282;10.560;2023-03-31T03:03:00;4.68;;;1.25;;
26946;SDS011;14501;52.282;10.560;2023-03-31T03:11:30;3.08;;;1.02;;
26946;SDS011;14501;52.282;10.560;2023-03-31T03:14:43;1.95;;;1.10;;
26946;SDS011;14501;52.282;10.560;2023-03-31T03:19:59;5.75;;;1.75;;
26946;SDS011;14501;52.282;10.560;2023-03-31T03:22:26;5.32;;;1.45;;
26946;SDS011;14501;52.282;10.560;2023-03-31T03:24:52;3.88;;;1.35;;
26946;SDS011;14501;52.282;10.560;2023-03-31T03:27:18;5.72;;;1.90;;
26946;SDS011;14501;52.282;10.560;2023-03-31T03:29:46;10.77;;;2.05;;
26946;SDS011;14501;52.282;10.560;2023-03-31T03:32:12;9.00;;;2.45;;
26946;SDS011;14501;52.282;10.560;2023-03-31T03:34:38;5.32;;;2.10;;
26946;SDS011;14501;52.282;10.560;2023-03-31T03:37:03;7.75;;;2.45;;
26946;SDS011;14501;52.282;10.560;2023-03-31T03:39:30;7.32;;;2.30;;
26946;SDS011;14501;52.282;10.560;2023-03-31T03:41:56;8.48;;;2.15;;
26946;SDS011;14501;52.282;10.560;2023-03-31T03:44:21;5.65;;;1.75;;
26946;SDS011;14501;52.282;10.560;2023-03-31T03:46:47;3.92;;;1.65;;
26946;SDS011;14501;52.282;10.560;2023-03-31T03:49:13;4.55;;;1.33;;
26946;SDS011;14501;52.282;10.560;2023-03-31T03:51:38;4.85;;;1.30;;
26946;SDS011;14501;52.282;10.560;2023-03-31T03:54:04;7.70;;;1.58;;
26946;SDS011;14501;52.282;10.560;2023-03-31T03:56:30;3.40;;;1.25;;
26946;SDS011;14501;52.282;10.560;2023-03-31T03:58:56;5.10;;;1.33;;
26946;SDS011;14501;52.282;10.560;2023-03-31T04:01:21;4.90;;;1.58;;
26946;SDS011;14501;52.282;10.560;2023-03-31T04:03:47;6.70;;;1.67;;
26946;SDS011;14501;52.282;10.560;2023-03-31T04:06:13;2.72;;;1.20;;
26946;SDS011;14501;52.282;10.560;2023-03-31T04:08:39;6.20;;;1.45;;
26946;SDS011;14501;52.282;10.560;2023-03-31T04:11:15;3.10;;;1.65;;
26946;SDS011;14501;52.282;10.560;2023-03-31T04:13:42;5.55;;;1.30;;
26946;SDS011;14501;52.282;10.560;2023-03-31T04:16:08;5.57;;;1.60;;
26946;SDS011;14501;52.282;10.560;2023-03-31T04:18:34;4.38;;;1.73;;
26946;SDS011;14501;52.282;10.560;2023-03-31T04:21:21;2.70;;;0.80;;
26946;SDS011;14501;52.282;10.560;2023-03-31T04:23:48;3.15;;;1.05;;
26946;SDS011;14501;52.282;10.560;2023-03-31T04:26:22;3.63;;;1.23;;
26946;SDS011;14501;52.282;10.560;2023-03-31T04:28:55;2.23;;;1.10;;
26946;SDS011;14501;52.282;10.560;2023-03-31T04:31:26;3.63;;;1.02;;
26946;SDS011;14501;52.282;10.560;2023-03-31T04:33:54;3.60;;;1.23;;
26946;SDS011;14501;52.282;10.560;2023-03-31T04:36:25;9.05;;;1.08;;
26946;SDS011;14501;52.282;10.560;2023-03-31T04:38:50;3.40;;;0.90;;
26946;SDS011;14501;52.282;10.560;2023-03-31T04:41:18;8.20;;;1.60;;
26946;SDS011;14501;52.282;10.560;2023-03-31T04:43:48;6.47;;;1.13;;
26946;SDS011;14501;52.282;10.560;2023-03-31T04:46:14;8.55;;;1.50;;
26946;SDS011;14501;52.282;10.560;2023-03-31T04:48:39;4.32;;;1.20;;
26946;SDS011;14501;52.282;10.560;2023-03-31T04:51:05;7.28;;;1.27;;
26946;SDS011;14501;52.282;10.560;2023-03-31T04:53:31;2.63;;;0.88;;
26946;SDS011;14501;52.282;10.560;2023-03-31T04:55:57;3.70;;;1.30;;
26946;SDS011;14501;52.282;10.560;2023-03-31T04:58:23;3.45;;;1.10;;
26946;SDS011;14501;52.282;10.560;2023-03-31T05:00:48;4.78;;;1.40;;
26946;SDS011;14501;52.282;10.560;2023-03-31T05:03:15;4.28;;;1.13;;
26946;SDS011;14501;52.282;10.560;2023-03-31T05:05:41;4.03;;;1.20;;
26946;SDS011;14501;52.282;10.560;2023-03-31T05:08:06;7.70;;;1.75;;
26946;SDS011;14501;52.282;10.560;2023-03-31T05:10:32;6.88;;;1.38;;
26946;SDS011;14501;52.282;10.560;2023-03-31T05:12:59;5.45;;;1.10;;
26946;SDS011;14501;52.282;10.560;2023-03-31T05:15:25;5.18;;;1.10;;
26946;SDS011;14501;52.282;10.560;2023-03-31T05:17:50;5.65;;;1.42;;
26946;SDS011;14501;52.282;10.560;2023-03-31T05:20:17;3.33;;;1.27;;
26946;SDS011;14501;52.282;10.560;2023-03-31T05:22:44;7.03;;;0.90;;
26946;SDS011;14501;52.282;10.560;2023-03-31T05:25:11;5.75;;;1.08;;
26946;SDS011;14501;52.282;10.560;2023-03-31T05:27:42;3.42;;;1.20;;
26946;SDS011;14501;52.282;10.560;2023-03-31T05:30:12;5.18;;;1.35;;
26946;SDS011;14501;52.282;10.560;2023-03-31T05:32:39;3.72;;;1.33;;
26946;SDS011;14501;52.282;10.560;2023-03-31T05:35:05;5.20;;;1.20;;
26946;SDS011;14501;52.282;10.560;2023-03-31T05:37:31;4.45;;;1.13;;
26946;SDS011;14501;52.282;10.560;2023-03-31T05:39:57;4.55;;;1.23;;
26946;SDS011;14501;52.282;10.560;2023-03-31T05:42:23;2.35;;;1.08;;
26946;SDS011;14501;52.282;10.560;2023-03-31T05:44:49;9.20;;;1.58;;
26946;SDS011;14501;52.282;10.560;2023-03-31T05:47:14;6.78;;;1.52;;
26946;SDS011;14501;52.282;10.560;2023-03-31T05:49:40;1.70;;;0.73;;
26946;SDS011;14501;52.282;10.560;2023-03-31T05:52:08;5.30;;;1.20;;
26946;SDS011;14501;52.282;10.560;2023-03-31T05:54:34;4.53;;;0.88;;
26946;SDS011;14501;52.282;10.560;2023-03-31T05:57:00;4.13;;;1.15;;
26946;SDS011;14501;52.282;10.560;2023-03-31T05:59:26;3.65;;;1.20;;
26946;SDS011;14501;52.282;10.560;2023-03-31T06:01:52;2.95;;;0.70;;
26946;SDS011;14501;52.282;10.560;2023-03-31T06:04:18;4.57;;;1.33;;
26946;SDS011;14501;52.282;10.560;2023-03-31T06:06:44;4.07;;;0.85;;
26946;SDS011;14501;52.282;10.560;2023-03-31T06:09:10;6.95;;;1.20;;
26946;SDS011;14501;52.282;10.560;2023-03-31T06:11:38;4.75;;;1.17;;
26946;SDS011;14501;52.282;10.560;2023-03-31T06:14:04;5.63;;;1.10;;
26946;SDS011;14501;52.282;10.560;2023-03-31T06:16:30;3.25;;;1.08;;
26946;SDS011;14501;52.282;10.560;2023-03-31T06:18:56;4.45;;;1.15;;
26946;SDS011;14501;52.282;10.560;2023-03-31T06:21:21;2.63;;;1.10;;
26946;SDS011;14501;52.282;10.560;2023-03-31T06:23:47;4.60;;;1.45;;
26946;SDS011;14501;52.282;10.560;2023-03-31T06:26:14;3.40;;;1.30;;
26946;SDS011;14501;52.282;10.560;2023-03-31T06:28:42;3.97;;;0.98;;
26946;SDS011;14501;52.282;10.560;2023-03-31T06:31:09;3.92;;;1.08;;
26946;SDS011;14501;52.282;10.560;2023-03-31T06:33:43;5.20;;;1.17;;
26946;SDS011;14501;52.282;10.560;2023-03-31T06:36:10;2.75;;;1.00;;
26946;SDS011;14501;52.282;10.560;2023-03-31T06:38:37;2.33;;;1.10;;
26946;SDS011;14501;52.282;10.560;2023-03-31T06:41:04;1.88;;;0.73;;
26946;SDS011;14501;52.282;10.560;2023-03-31T06:43:31;2.55;;;0.80;;
26946;SDS011;14501;52.282;10.560;2023-03-31T06:45:57;1.75;;;0.90;;
26946;SDS011;14501;52.282;10.560;2023-03-31T06:48:26;2.08;;;0.98;;
26946;SDS011;14501;52.282;10.560;2023-03-31T06:50:52;7.10;;;1.00;;
26946;SDS011;14501;52.282;10.560;2023-03-31T06:53:18;3.33;;;1.48;;
26946;SDS011;14501;52.282;10.560;2023-03-31T06:55:46;3.65;;;1.33;;
26946;SDS011;14501;52.282;10.560;2023-03-31T06:58:11;0.68;;;0.50;;
26946;SDS011;14501;52.282;10.560;2023-03-31T07:00:37;4.70;;;0.90;;
26946;SDS011;14501;52.282;10.560;2023-03-31T07:03:03;4.72;;;1.15;;
26946;SDS011;14501;52.282;10.560;2023-03-31T07:05:30;1.92;;;0.50;;
26946;SDS011;14501;52.282;10.560;2023-03-31T07:07:57;2.78;;;1.05;;
26946;SDS011;14501;52.282;10.560;2023-03-31T07:10:24;2.28;;;0.80;;
26946;SDS011;14501;52.282;10.560;2023-03-31T07:12:52;2.78;;;0.82;;
26946;SDS011;14501;52.282;10.560;2023-03-31T07:15:17;2.63;;;1.00;;
26946;SDS011;14501;52.282;10.560;2023-03-31T07:17:43;1.67;;;0.88;;
26946;SDS011;14501;52.282;10.560;2023-03-31T07:20:09;3.60;;;1.13;;
26946;SDS011;14501;52.282;10.560;2023-03-31T07:22:39;3.15;;;0.90;;
26946;SDS011;14501;52.282;10.560;2023-03-31T07:25:05;2.50;;;1.33;;
26946;SDS011;14501;52.282;10.560;2023-03-31T07:27:35;5.10;;;1.30;;
26946;SDS011;14501;52.282;10.560;2023-03-31T07:30:01;4.88;;;1.30;;
26946;SDS011;14501;52.282;10.560;2023-03-31T07:32:31;3.10;;;0.80;;
26946;SDS011;14501;52.282;10.560;2023-03-31T07:34:57;3.47;;;0.90;;
26946;SDS011;14501;52.282;10.560;2023-03-31T07:37:23;1.67;;;1.10;;
26946;SDS011;14501;52.282;10.560;2023-03-31T07:39:49;3.17;;;1.15;;
26946;SDS011;14501;52.282;10.560;2023-03-31T07:42:15;1.95;;;0.82;;
26946;SDS011;14501;52.282;10.560;2023-03-31T07:44:40;3.53;;;1.15;;
26946;SDS011;14501;52.282;10.560;2023-03-31T07:47:06;6.00;;;1.15;;
26946;SDS011;14501;52.282;10.560;2023-03-31T07:49:32;2.65;;;1.15;;
26946;SDS011;14501;52.282;10.560;2023-03-31T07:51:59;3.72;;;1.00;;
26946;SDS011;14501;52.282;10.560;2023-03-31T07:54:25;2.30;;;0.50;;
26946;SDS011;14501;52.282;10.560;2023-03-31T07:56:51;5.30;;;1.08;;
26946;SDS011;14501;52.282;10.560;2023-03-31T07:59:17;4.25;;;1.13;;
26946;SDS011;14501;52.282;10.560;2023-03-31T08:01:43;2.70;;;0.80;;
26946;SDS011;14501;52.282;10.560;2023-03-31T08:04:09;1.48;;;0.82;;
26946;SDS011;14501;52.282;10.560;2023-03-31T08:06:36;4.72;;;0.90;;
26946;SDS011;14501;52.282;10.560;2023-03-31T08:09:02;4.65;;;1.15;;
26946;SDS011;14501;52.282;10.560;2023-03-31T08:11:29;3.17;;;0.80;;
26946;SDS011;14501;52.282;10.560;2023-03-31T08:13:55;3.72;;;0.82;;
26946;SDS011;14501;52.282;10.560;2023-03-31T08:16:20;3.03;;;1.00;;
26946;SDS011;14501;52.282;10.560;2023-03-31T08:18:47;2.75;;;0.93;;
26946;SDS011;14501;52.282;10.560;2023-03-31T08:21:12;6.85;;;1.13;;
26946;SDS011;14501;52.282;10.560;2023-03-31T08:23:38;6.78;;;0.90;;
26946;SDS011;14501;52.282;10.560;2023-03-31T08:26:08;4.05;;;0.80;;
26946;SDS011;14501;52.282;10.560;2023-03-31T08:28:35;2.92;;;0.77;;
26946;SDS011;14501;52.282;10.560;2023-03-31T08:31:07;4.30;;;1.17;;
26946;SDS011;14501;52.282;10.560;2023-03-31T08:39:31;2.97;;;0.93;;
26946;SDS011;14501;52.282;10.560;2023-03-31T08:42:32;4.90;;;1.10;;
26946;SDS011;14501;52.282;10.560;2023-03-31T08:47:36;4.30;;;0.98;;
26946;SDS011;14501;52.282;10.560;2023-03-31T08:50:05;4.00;;;0.90;;
26946;SDS011;14501;52.282;10.560;2023-03-31T08:52:44;3.97;;;0.80;;
26946;SDS011;14501;52.282;10.560;2023-03-31T08:55:21;4.97;;;1.10;;
26946;SDS011;14501;52.282;10.560;2023-03-31T09:00:25;3.40;;;1.05;;
26946;SDS011;14501;52.282;10.560;2023-03-31T09:03:04;5.80;;;0.90;;
26946;SDS011;14501;52.282;10.560;2023-03-31T09:06:01;4.00;;;0.90;;
26946;SDS011;14501;52.282;10.560;2023-03-31T09:11:12;5.00;;;1.35;;
26946;SDS011;14501;52.282;10.560;2023-03-31T09:19:19;1.88;;;0.77;;
26946;SDS011;14501;52.282;10.560;2023-03-31T09:21:54;4.43;;;1.50;;
26946;SDS011;14501;52.282;10.560;2023-03-31T09:24:27;2.80;;;0.80;;
26946;SDS011;14501;52.282;10.560;2023-03-31T09:27:06;2.63;;;0.60;;
26946;SDS011;14501;52.282;10.560;2023-03-31T09:29:47;1.98;;;0.73;;
26946;SDS011;14501;52.282;10.560;2023-03-31T09:34:51;3.58;;;0.98;;
26946;SDS011;14501;52.282;10.560;2023-03-31T09:37:21;2.63;;;0.77;;
26946;SDS011;14501;52.282;10.560;2023-03-31T09:39:54;3.83;;;0.70;;
26946;SDS011;14501;52.282;10.560;2023-03-31T09:42:20;2.05;;;0.77;;
26946;SDS011;14501;52.282;10.560;2023-03-31T09:44:46;2.65;;;0.90;;
26946;SDS011;14501;52.282;10.560;2023-03-31T09:47:28;3.70;;;0.70;;
26946;SDS011;14501;52.282;10.560;2023-03-31T09:50:03;2.90;;;1.00;;
26946;SDS011;14501;52.282;10.560;2023-03-31T09:52:30;2.47;;;0.90;;
26946;SDS011;14501;52.282;10.560;2023-03-31T09:54:59;2.28;;;0.73;;
26946;SDS011;14501;52.282;10.560;2023-03-31T09:58:44;4.03;;;0.80;;
26946;SDS011;14501;52.282;10.560;2023-03-31T10:01:11;3.35;;;1.02;;
26946;SDS011;14501;52.282;10.560;2023-03-31T10:03:51;2.63;;;1.10;;
26946;SDS011;14501;52.282;10.560;2023-03-31T10:06:19;3.40;;;0.82;;
26946;SDS011;14501;52.282;10.560;2023-03-31T10:11:11;2.22;;;0.70;;
26946;SDS011;14501;52.282;10.560;2023-03-31T10:13:47;0.75;;;0.70;;
26946;SDS011;14501;52.282;10.560;2023-03-31T10:16:32;1.55;;;0.73;;
26946;SDS011;14501;52.282;10.560;2023-03-31T10:21:48;3.33;;;0.90;;
26946;SDS011;14501;52.282;10.560;2023-03-31T10:24:35;1.90;;;0.73;;
26946;SDS011;14501;52.282;10.560;2023-03-31T10:27:13;1.42;;;0.68;;
26946;SDS011;14501;52.282;10.560;2023-03-31T10:30:00;2.00;;;0.90;;
26946;SDS011;14501;52.282;10.560;2023-03-31T10:32:37;1.90;;;0.93;;
26946;SDS011;14501;52.282;10.560;2023-03-31T10:35:11;2.13;;;1.10;;
26946;SDS011;14501;52.282;10.560;2023-03-31T10:37:57;3.20;;;1.23;;
26946;SDS011;14501;52.282;10.560;2023-03-31T10:40:28;4.50;;;1.20;;
26946;SDS011;14501;52.282;10.560;2023-03-31T10:45:47;3.25;;;1.50;;
26946;SDS011;14501;52.282;10.560;2023-03-31T10:48:33;3.58;;;1.17;;
26946;SDS011;14501;52.282;10.560;2023-03-31T10:51:04;3.63;;;1.33;;
26946;SDS011;14501;52.282;10.560;2023-03-31T10:53:38;2.78;;;1.00;;
26946;SDS011;14501;52.282;10.560;2023-03-31T11:10:30;4.28;;;1.40;;
26946;SDS011;14501;52.282;10.560;2023-03-31T11:13:23;2.80;;;1.60;;
26946;SDS011;14501;52.282;10.560;2023-03-31T11:18:36;3.75;;;1.20;;
26946;SDS011;14501;52.282;10.560;2023-03-31T11:32:55;2.33;;;1.17;;
26946;SDS011;14501;52.282;10.560;2023-03-31T11:38:43;3.33;;;0.90;;
26946;SDS011;14501;52.282;10.560;2023-03-31T11:44:03;4.57;;;1.13;;
26946;SDS011;14501;52.282;10.560;2023-03-31T11:51:47;5.13;;;1.35;;
26946;SDS011;14501;52.282;10.560;2023-03-31T11:54:35;4.97;;;1.52;;
26946;SDS011;14501;52.282;10.560;2023-03-31T12:00:19;3.13;;;1.60;;
26946;SDS011;14501;52.282;10.560;2023-03-31T12:02:53;0.95;;;0.82;;
26946;SDS011;14501;52.282;10.560;2023-03-31T12:05:52;2.65;;;1.10;;
26946;SDS011;14501;52.282;10.560;2023-03-31T12:08:40;4.50;;;1.30;;
26946;SDS011;14501;52.282;10.560;2023-03-31T12:16:39;2.90;;;1.75;;
26946;SDS011;14501;52.282;10.560;2023-03-31T12:21:48;3.65;;;1.50;;
26946;SDS011;14501;52.282;10.560;2023-03-31T12:24:17;5.25;;;1.63;;
26946;SDS011;14501;52.282;10.560;2023-03-31T12:26:55;5.53;;;1.08;;
26946;SDS011;14501;52.282;10.560;2023-03-31T12:32:25;2.92;;;1.23;;
26946;SDS011;14501;52.282;10.560;2023-03-31T12:34:58;2.15;;;1.52;;
26946;SDS011;14501;52.282;10.560;2023-03-31T12:40:31;3.45;;;1.80;;
26946;SDS011;14501;52.282;10.560;2023-03-31T12:43:12;2.38;;;1.60;;
26946;SDS011;14501;52.282;10.560;2023-03-31T12:59:36;2.38;;;1.25;;
26946;SDS011;14501;52.282;10.560;2023-03-31T13:02:21;4.32;;;1.92;;
26946;SDS011;14501;52.282;10.560;2023-03-31T13:04:48;5.32;;;1.40;;
26946;SDS011;14501;52.282;10.560;2023-03-31T13:09:50;3.13;;;1.10;;
26946;SDS011;14501;52.282;10.560;2023-03-31T13:12:40;2.95;;;1.02;;
26946;SDS011;14501;52.282;10.560;2023-03-31T13:15:24;1.95;;;1.20;;
26946;SDS011;14501;52.282;10.560;2023-03-31T13:17:59;5.43;;;1.38;;
26946;SDS011;14501;52.282;10.560;2023-03-31T13:20:36;3.53;;;1.52;;
26946;SDS011;14501;52.282;10.560;2023-03-31T13:23:14;5.40;;;2.10;;
26946;SDS011;14501;52.282;10.560;2023-03-31T13:25:53;2.08;;;1.60;;
26946;SDS011;14501;52.282;10.560;2023-03-31T13:55:24;1.88;;;1.08;;
26946;SDS011;14501;52.282;10.560;2023-03-31T14:09:06;1.98;;;0.93;;
26946;SDS011;14501;52.282;10.560;2023-03-31T14:11:34;4.68;;;1.00;;
26946;SDS011;14501;52.282;10.560;2023-03-31T14:14:33;3.83;;;1.00;;
26946;SDS011;14501;52.282;10.560;2023-03-31T14:30:34;7.57;;;1.20;;
26946;SDS011;14501;52.282;10.560;2023-03-31T14:36:07;3.30;;;1.20;;
26946;SDS011;14501;52.282;10.560;2023-03-31T14:38:53;4.90;;;1.17;;
26946;SDS011;14501;52.282;10.560;2023-03-31T14:41:25;4.10;;;1.77;;
26946;SDS011;14501;52.282;10.560;2023-03-31T14:43:53;5.35;;;1.23;;
26946;SDS011;14501;52.282;10.560;2023-03-31T14:46:21;2.55;;;1.13;;
26946;SDS011;14501;52.282;10.560;2023-03-31T14:48:48;2.78;;;0.80;;
26946;SDS011;14501;52.282;10.560;2023-03-31T14:51:23;2.03;;;1.08;;
26946;SDS011;14501;52.282;10.560;2023-03-31T14:53:58;5.65;;;2.00;;
26946;SDS011;14501;52.282;10.560;2023-03-31T14:58:55;3.13;;;1.15;;
26946;SDS011;14501;52.282;10.560;2023-03-31T15:01:22;4.65;;;1.35;;
26946;SDS011;14501;52.282;10.560;2023-03-31T15:03:53;5.68;;;1.52;;
26946;SDS011;14501;52.282;10.560;2023-03-31T15:06:19;3.78;;;1.33;;
26946;SDS011;14501;52.282;10.560;2023-03-31T15:08:49;5.22;;;1.02;;
26946;SDS011;14501;52.282;10.560;2023-03-31T15:11:21;4.03;;;1.25;;
26946;SDS011;14501;52.282;10.560;2023-03-31T15:13:47;6.22;;;1.38;;
26946;SDS011;14501;52.282;10.560;2023-03-31T15:18:44;5.97;;;1.52;;
26946;SDS011;14501;52.282;10.560;2023-03-31T15:21:18;9.05;;;2.47;;
26946;SDS011;14501;52.282;10.560;2023-03-31T15:23:45;4.30;;;1.33;;
26946;SDS011;14501;52.282;10.560;2023-03-31T15:26:10;2.63;;;1.35;;
26946;SDS011;14501;52.282;10.560;2023-03-31T15:28:42;2.03;;;1.38;;
26946;SDS011;14501;52.282;10.560;2023-03-31T15:31:21;1.92;;;1.17;;
26946;SDS011;14501;52.282;10.560;2023-03-31T15:33:48;3.13;;;0.90;;
26946;SDS011;14501;52.282;10.560;2023-03-31T15:36:15;6.40;;;1.65;;
26946;SDS011;14501;52.282;10.560;2023-03-31T15:38:41;2.72;;;0.90;;
26946;SDS011;14501;52.282;10.560;2023-03-31T15:41:11;1.70;;;0.80;;
26946;SDS011;14501;52.282;10.560;2023-03-31T15:46:18;1.48;;;0.70;;
26946;SDS011;14501;52.282;10.560;2023-03-31T15:48:50;3.20;;;1.05;;
26946;SDS011;14501;52.282;10.560;2023-03-31T15:51:51;2.47;;;0.70;;
26946;SDS011;14501;52.282;10.560;2023-03-31T15:56:58;1.85;;;1.23;;
26946;SDS011;14501;52.282;10.560;2023-03-31T15:59:26;3.55;;;1.10;;
26946;SDS011;14501;52.282;10.560;2023-03-31T16:01:54;4.53;;;1.50;;
26946;SDS011;14501;52.282;10.560;2023-03-31T16:04:20;2.33;;;1.35;;
26946;SDS011;14501;52.282;10.560;2023-03-31T16:06:49;1.40;;;0.90;;
26946;SDS011;14501;52.282;10.560;2023-03-31T16:09:22;2.45;;;1.20;;
26946;SDS011;14501;52.282;10.560;2023-03-31T16:12:03;3.03;;;0.90;;
26946;SDS011;14501;52.282;10.560;2023-03-31T16:14:35;3.95;;;1.45;;
26946;SDS011;14501;52.282;10.560;2023-03-31T16:17:12;1.70;;;1.05;;
26946;SDS011;14501;52.282;10.560;2023-03-31T16:19:54;1.88;;;1.02;;
26946;SDS011;14501;52.282;10.560;2023-03-31T16:22:28;2.15;;;1.33;;
26946;SDS011;14501;52.282;10.560;2023-03-31T16:24:59;1.77;;;0.90;;
26946;SDS011;14501;52.282;10.560;2023-03-31T16:27:25;3.38;;;1.10;;
26946;SDS011;14501;52.282;10.560;2023-03-31T16:29:53;2.00;;;1.20;;
26946;SDS011;14501;52.282;10.560;2023-03-31T16:32:39;2.42;;;1.30;;
26946;SDS011;14501;52.282;10.560;2023-03-31T16:35:28;7.20;;;1.48;;
26946;SDS011;14501;52.282;10.560;2023-03-31T16:38:01;3.10;;;1.23;;
26946;SDS011;14501;52.282;10.560;2023-03-31T16:40:28;2.30;;;0.80;;
26946;SDS011;14501;52.282;10.560;2023-03-31T16:45:45;5.13;;;1.60;;
26946;SDS011;14501;52.282;10.560;2023-03-31T16:48:13;3.40;;;1.10;;
26946;SDS011;14501;52.282;10.560;2023-03-31T16:50:47;1.25;;;1.15;;
26946;SDS011;14501;52.282;10.560;2023-03-31T16:53:14;4.60;;;1.30;;
26946;SDS011;14501;52.282;10.560;2023-03-31T16:55:46;3.72;;;1.15;;
26946;SDS011;14501;52.282;10.560;2023-03-31T16:58:11;2.88;;;1.20;;
26946;SDS011;14501;52.282;10.560;2023-03-31T17:00:37;1.25;;;0.85;;
26946;SDS011;14501;52.282;10.560;2023-03-31T17:03:05;1.98;;;0.90;;
26946;SDS011;14501;52.282;10.560;2023-03-31T17:05:36;1.65;;;0.70;;
26946;SDS011;14501;52.282;10.560;2023-03-31T17:08:03;2.97;;;1.02;;
26946;SDS011;14501;52.282;10.560;2023-03-31T17:10:29;1.65;;;0.77;;
26946;SDS011;14501;52.282;10.560;2023-03-31T17:12:55;6.68;;;1.08;;
26946;SDS011;14501;52.282;10.560;2023-03-31T17:15:20;2.28;;;1.05;;
26946;SDS011;14501;52.282;10.560;2023-03-31T17:17:47;2.47;;;0.95;;
26946;SDS011;14501;52.282;10.560;2023-03-31T17:20:13;3.90;;;0.80;;
26946;SDS011;14501;52.282;10.560;2023-03-31T17:22:39;2.25;;;0.98;;
26946;SDS011;14501;52.282;10.560;2023-03-31T17:25:05;2.63;;;1.00;;
26946;SDS011;14501;52.282;10.560;2023-03-31T17:27:32;2.90;;;0.75;;
26946;SDS011;14501;52.282;10.560;2023-03-31T17:29:58;5.65;;;1.17;;
26946;SDS011;14501;52.282;10.560;2023-03-31T17:32:24;4.60;;;1.55;;
26946;SDS011;14501;52.282;10.560;2023-03-31T17:34:50;4.20;;;1.17;;
26946;SDS011;14501;52.282;10.560;2023-03-31T17:37:16;2.55;;;0.98;;
26946;SDS011;14501;52.282;10.560;2023-03-31T17:39:42;2.92;;;1.25;;
26946;SDS011;14501;52.282;10.560;2023-03-31T17:42:11;5.97;;;1.80;;
26946;SDS011;14501;52.282;10.560;2023-03-31T17:44:38;2.38;;;1.30;;
26946;SDS011;14501;52.282;10.560;2023-03-31T17:47:05;3.22;;;1.17;;
26946;SDS011;14501;52.282;10.560;2023-03-31T17:49:31;4.05;;;1.40;;
26946;SDS011;14501;52.282;10.560;2023-03-31T17:51:57;2.90;;;1.20;;
26946;SDS011;14501;52.282;10.560;2023-03-31T17:54:24;2.05;;;1.15;;
26946;SDS011;14501;52.282;10.560;2023-03-31T17:56:50;4.78;;;1.70;;
26946;SDS011;14501;52.282;10.560;2023-03-31T17:59:19;6.85;;;2.22;;
26946;SDS011;14501;52.282;10.560;2023-03-31T18:01:46;4.43;;;1.90;;
26946;SDS011;14501;52.282;10.560;2023-03-31T18:04:12;4.72;;;2.20;;
26946;SDS011;14501;52.282;10.560;2023-03-31T18:06:38;4.82;;;1.58;;
26946;SDS011;14501;52.282;10.560;2023-03-31T18:09:04;5.30;;;1.95;;
26946;SDS011;14501;52.282;10.560;2023-03-31T18:11:30;3.17;;;1.45;;
26946;SDS011;14501;52.282;10.560;2023-03-31T18:13:56;5.45;;;1.40;;
26946;SDS011;14501;52.282;10.560;2023-03-31T18:16:25;5.32;;;1.40;;
26946;SDS011;14501;52.282;10.560;2023-03-31T18:18:51;6.55;;;1.40;;
26946;SDS011;14501;52.282;10.560;2023-03-31T18:21:17;6.00;;;1.55;;
26946;SDS011;14501;52.282;10.560;2023-03-31T18:23:43;2.17;;;1.10;;
26946;SDS011;14501;52.282;10.560;2023-03-31T18:26:10;5.60;;;2.08;;
26946;SDS011;14501;52.282;10.560;2023-03-31T18:28:38;6.10;;;1.65;;
26946;SDS011;14501;52.282;10.560;2023-03-31T18:31:05;3.55;;;1.52;;
26946;SDS011;14501;52.282;10.560;2023-03-31T18:33:32;5.70;;;1.30;;
26946;SDS011;14501;52.282;10.560;2023-03-31T18:35:58;5.18;;;1.88;;